Awosting, New Jersey
Current Conditions -  °F | °C
As of 6:08 AM on Sunday 21 Dec 2014 (Local Time) from KFWN Reporting Station
Overcast Overcast  
Wind Chill: -2°   Ceiling: 1400
Heat Index: -2°   Visibility: 9mi
Dew Point: -3°   Wind: 0mph
Humidity: 89%   Direction: NA
Pressure: 30.28"   Gusts: NA
Location:  41.1652°N, 74.3769°W
Report Text: KFWN 211108Z AUTO 00000KT 9SM FEW008 OVC014 M02/M03 A3028 RMK AO2 T10171033
Loading
Personal Weather Stations






























Interactive Weather Map New forecast layout! Learn more

10-Day Weather Forecast

Advertisements
Track Severe Weather on mobile